Mc Gill, Nevada
Current Conditions -  °F | °C
As of 11:53 AM on Thursday 29 Jan 2015 (Local Time) from KELY Reporting Station
Overcast Overcast  
Wind Chill: 40°   Ceiling: 9000
Heat Index: 40°   Visibility: 10mi
Dew Point: 30°   Wind: 0mph
Humidity: 68%   Direction: NA
Pressure: 30.29"   Gusts: NA
Location:  39.4053°N, 114.775°W
Report Text: KELY 291953Z AUTO 00000KT 10SM FEW055 FEW075 OVC090 04/M01 A3029 RMK AO2 SLP255 T00441011
Loading
Personal Weather Stations






























Interactive Weather Map New forecast layout! Learn more

10-Day Weather Forecast

Advertisements
Track Severe Weather on mobile